Time;durP1;ratioP1;P1;durP2;ratioP2;P2;SDS_P1;SDS_P2;PMS_P1;PMS_P2;Temp;Humidity;BMP_temperature;BMP_pressure;BME280_temperature;BME280_humidity;BME280_pressure;Samples;Min_cycle;Max_cycle;Signal;HPM_P1;HPM_P2
2022/02/14 00:01:35;;;;;;;;;;;18.90;53.60;;;;;;4996604;28;1371;-73
2022/02/14 00:04:01;;;;;;;;;;;18.90;53.60;;;;;;5014268;28;1072;-73
2022/02/14 00:06:26;;;;;;;;;;;18.90;53.60;;;;;;4980803;28;2059;-73
2022/02/14 00:08:51;;;;;;;;;;;18.90;53.60;;;;;;4996690;28;1124;-73
2022/02/14 00:11:17;;;;;;;;;;;18.90;53.60;;;;;;4979633;28;1277;-73
2022/02/14 00:13:42;;;;;;;;;;;18.90;53.70;;;;;;4980724;28;1082;-73
2022/02/14 00:16:08;;;;;;;;;;;18.90;53.70;;;;;;4996181;28;1097;-72
2022/02/14 00:18:33;;;;;;;;;;;18.90;53.70;;;;;;4996165;28;1116;-73
2022/02/14 00:20:59;;;;;;;;;;;18.90;53.80;;;;;;4979860;28;1495;-73
2022/02/14 00:23:24;;;;;;;;;;;18.90;53.80;;;;;;4998332;23;3648;-68
2022/02/14 00:25:49;;;;;;;;;;;18.80;53.80;;;;;;4999534;28;2090;-68
2022/02/14 00:28:16;;;;;;;;;;;18.90;53.80;;;;;;5033690;28;1453;-68
2022/02/14 00:30:42;;;;;;;;;;;18.90;53.90;;;;;;5033684;28;1254;-68
2022/02/14 00:33:07;;;;;;;;;;;18.90;53.90;;;;;;5016105;28;1385;-69
2022/02/14 00:35:33;;;;;;;;;;;18.80;53.90;;;;;;5016105;28;1123;-68
2022/02/14 00:37:58;;;;;;;;;;;18.80;53.90;;;;;;5033694;28;1139;-68
2022/02/14 00:40:24;;;;;;;;;;;18.90;53.90;;;;;;5014237;28;1332;-68
2022/02/14 00:42:49;;;;;;;;;;;18.80;53.90;;;;;;5015785;28;1332;-66
2022/02/14 00:45:16;;;;;;;;;;;18.80;53.90;;;;;;5016120;28;1997;-68
2022/02/14 00:47:41;;;;;;;;;;;18.80;54.50;;;;;;5033692;28;1076;-68
2022/02/14 00:50:08;;;;;;;;;;;18.80;54.00;;;;;;5033321;28;1068;-68
2022/02/14 00:52:34;;;;;;;;;;;18.80;54.00;;;;;;5015916;28;1268;-68
2022/02/14 00:54:59;;;;;;;;;;;18.80;54.00;;;;;;5033439;28;1330;-69
2022/02/14 00:57:25;;;;;;;;;;;18.80;54.00;;;;;;5033605;28;1103;-68
2022/02/14 00:59:50;;;;;;;;;;;18.80;54.00;;;;;;5015386;28;1203;-69
2022/02/14 01:02:16;;;;;;;;;;;18.80;54.10;;;;;;5015527;28;1408;-68
2022/02/14 01:04:41;;;;;;;;;;;18.80;54.10;;;;;;5033296;28;1903;-68
2022/02/14 01:07:06;;;;;;;;;;;18.80;54.10;;;;;;5033149;28;1065;-68
2022/02/14 01:09:32;;;;;;;;;;;18.80;54.10;;;;;;5032905;28;1131;-67
2022/02/14 01:11:57;;;;;;;;;;;18.80;54.10;;;;;;5033174;28;1072;-69
2022/02/14 01:14:23;;;;;;;;;;;18.80;54.10;;;;;;5033228;28;1299;-69
2022/02/14 01:16:48;;;;;;;;;;;18.80;54.20;;;;;;5033072;28;1056;-68
2022/02/14 01:19:13;;;;;;;;;;;18.80;54.10;;;;;;5015196;28;1457;-67
2022/02/14 01:21:39;;;;;;;;;;;18.80;54.20;;;;;;5032995;28;1299;-69
2022/02/14 01:24:04;;;;;;;;;;;18.80;54.20;;;;;;4998794;28;1973;-68
2022/02/14 01:26:30;;;;;;;;;;;18.80;54.20;;;;;;5033166;28;1097;-67
2022/02/14 01:28:56;;;;;;;;;;;18.80;54.20;;;;;;5032566;28;1314;-67
2022/02/14 01:31:22;;;;;;;;;;;18.80;54.20;;;;;;5032945;28;1218;-67
2022/02/14 01:33:47;;;;;;;;;;;18.80;54.30;;;;;;5015130;28;1344;-67
2022/02/14 01:36:13;;;;;;;;;;;18.80;54.30;;;;;;5031673;28;1171;-67
2022/02/14 01:38:38;;;;;;;;;;;18.70;54.20;;;;;;5032548;28;1190;-67
2022/02/14 01:41:04;;;;;;;;;;;18.70;54.30;;;;;;5033292;28;1426;-66
2022/02/14 01:43:29;;;;;;;;;;;18.70;54.30;;;;;;5032482;28;1267;-67
2022/02/14 01:45:54;;;;;;;;;;;18.70;54.30;;;;;;5032779;28;1981;-67
2022/02/14 01:48:20;;;;;;;;;;;18.70;54.30;;;;;;5032450;28;1390;-67
2022/02/14 01:50:45;;;;;;;;;;;18.70;54.30;;;;;;5033015;28;1301;-67
2022/02/14 01:53:11;;;;;;;;;;;18.70;54.30;;;;;;5014921;28;1398;-66
2022/02/14 01:55:36;;;;;;;;;;;18.70;54.40;;;;;;5015028;28;1403;-67
2022/02/14 01:58:02;;;;;;;;;;;18.70;54.40;;;;;;5032454;28;1104;-67
2022/02/14 02:00:29;;;;;;;;;;;18.70;54.40;;;;;;5032386;28;1277;-67
2022/02/14 02:02:54;;;;;;;;;;;18.70;54.40;;;;;;5015080;28;1363;-67
2022/02/14 02:05:21;;;;;;;;;;;18.70;54.40;;;;;;5032993;28;1963;-67
2022/02/14 02:07:46;;;;;;;;;;;18.70;54.40;;;;;;5014843;28;1076;-67
2022/02/14 02:10:12;;;;;;;;;;;18.70;54.40;;;;;;5014608;28;1519;-67
2022/02/14 02:12:38;;;;;;;;;;;18.70;54.40;;;;;;5032139;28;1288;-67
2022/02/14 02:15:04;;;;;;;;;;;18.70;54.40;;;;;;5015211;28;1257;-67
2022/02/14 02:17:30;;;;;;;;;;;18.70;54.50;;;;;;5014873;28;1284;-67
2022/02/14 02:19:56;;;;;;;;;;;18.70;54.50;;;;;;5034044;28;1078;-67
2022/02/14 02:22:21;;;;;;;;;;;18.70;54.50;;;;;;5018441;28;1279;-67
2022/02/14 02:24:47;;;;;;;;;;;18.70;54.50;;;;;;5018427;28;1906;-67
2022/02/14 02:27:13;;;;;;;;;;;18.70;54.50;;;;;;5035877;28;1072;-67
2022/02/14 02:29:39;;;;;;;;;;;18.70;54.50;;;;;;5035991;28;1170;-67
2022/02/14 02:32:05;;;;;;;;;;;18.70;54.50;;;;;;5018308;28;1403;-67
2022/02/14 02:34:31;;;;;;;;;;;18.70;54.50;;;;;;5035996;28;1524;-67
2022/02/14 02:36:56;;;;;;;;;;;18.70;55.10;;;;;;5034743;28;1341;-67
2022/02/14 02:39:22;;;;;;;;;;;18.70;54.50;;;;;;5035887;28;1385;-67
2022/02/14 02:41:47;;;;;;;;;;;18.70;54.50;;;;;;5001624;28;1092;-67
2022/02/14 02:44:13;;;;;;;;;;;18.70;54.50;;;;;;5035984;28;1936;-67
2022/02/14 02:46:38;;;;;;;;;;;18.70;54.50;;;;;;5018104;28;1072;-67
2022/02/14 02:49:11;;;;;;;;;;;18.70;54.50;;;;;;5018239;28;1135;-67
2022/02/14 02:51:37;;;;;;;;;;;18.70;54.50;;;;;;5017785;28;1103;-67
2022/02/14 02:54:02;;;;;;;;;;;18.70;54.60;;;;;;5018400;28;1303;-67
2022/02/14 02:56:28;;;;;;;;;;;18.70;54.50;;;;;;5035397;28;1119;-67
2022/02/14 02:58:53;;;;;;;;;;;18.70;54.50;;;;;;5035502;28;1111;-67
2022/02/14 03:01:19;;;;;;;;;;;18.70;54.60;;;;;;5034647;28;1072;-67
2022/02/14 03:03:44;;;;;;;;;;;18.70;54.60;;;;;;5035478;28;1164;-67
2022/02/14 03:06:10;;;;;;;;;;;18.70;54.60;;;;;;5035429;28;1943;-67
2022/02/14 03:08:35;;;;;;;;;;;18.70;54.60;;;;;;5035604;28;1134;-67
2022/02/14 03:11:01;;;;;;;;;;;18.70;54.60;;;;;;5034871;28;1306;-67
2022/02/14 03:13:26;;;;;;;;;;;18.70;54.60;;;;;;5035240;28;1322;-67
2022/02/14 03:15:51;;;;;;;;;;;18.70;54.60;;;;;;5035230;28;1428;-67
2022/02/14 03:18:17;;;;;;;;;;;18.70;54.60;;;;;;5035342;28;1285;-67
2022/02/14 03:20:43;;;;;;;;;;;18.70;54.60;;;;;;5035135;28;1056;-67
2022/02/14 03:23:08;;;;;;;;;;;18.70;54.60;;;;;;5034962;28;1359;-67
2022/02/14 03:25:34;;;;;;;;;;;18.60;54.60;;;;;;5034876;28;1979;-67
2022/02/14 03:27:59;;;;;;;;;;;18.70;54.70;;;;;;5000987;28;1109;-67
2022/02/14 03:30:25;;;;;;;;;;;18.70;54.70;;;;;;5034252;28;1492;-67
2022/02/14 03:32:50;;;;;;;;;;;18.70;54.70;;;;;;5035037;28;1448;-67
2022/02/14 03:35:15;;;;;;;;;;;18.60;54.60;;;;;;5034947;28;1056;-67
2022/02/14 03:37:41;;;;;;;;;;;18.60;54.60;;;;;;5034910;28;1368;-67
2022/02/14 03:40:07;;;;;;;;;;;18.60;54.70;;;;;;5034641;28;1068;-67
2022/02/14 03:42:32;;;;;;;;;;;18.60;54.70;;;;;;5016813;28;1349;-66
2022/02/14 03:44:58;;;;;;;;;;;18.60;54.70;;;;;;5017052;28;1949;-67
2022/02/14 03:47:23;;;;;;;;;;;18.60;54.70;;;;;;5021501;28;1331;-67
2022/02/14 03:49:49;;;;;;;;;;;18.60;54.70;;;;;;5034413;28;1273;-67
2022/02/14 03:52:14;;;;;;;;;;;18.60;54.70;;;;;;5016764;28;1172;-67
2022/02/14 03:54:40;;;;;;;;;;;18.60;54.70;;;;;;5016609;28;1224;-67
2022/02/14 03:57:05;;;;;;;;;;;18.60;54.70;;;;;;5034467;28;1139;-67
2022/02/14 03:59:31;;;;;;;;;;;18.60;54.80;;;;;;5034267;28;1076;-68
2022/02/14 04:01:56;;;;;;;;;;;18.60;54.80;;;;;;5034336;28;1321;-66
2022/02/14 04:04:22;;;;;;;;;;;18.60;54.80;;;;;;5034616;28;1894;-67
2022/02/14 04:06:47;;;;;;;;;;;18.60;54.80;;;;;;5034233;28;1358;-67
2022/02/14 04:09:12;;;;;;;;;;;18.60;54.80;;;;;;5016205;28;1135;-67
2022/02/14 04:11:38;;;;;;;;;;;18.60;54.80;;;;;;5034228;28;1183;-67
2022/02/14 04:14:03;;;;;;;;;;;18.60;54.80;;;;;;5034505;28;1262;-67
2022/02/14 04:16:29;;;;;;;;;;;18.60;54.80;;;;;;5034220;28;1123;-67
2022/02/14 04:18:54;;;;;;;;;;;18.60;54.90;;;;;;5034298;28;1424;-67
2022/02/14 04:21:20;;;;;;;;;;;18.60;54.90;;;;;;5016291;28;1171;-68
2022/02/14 04:23:45;;;;;;;;;;;18.60;54.90;;;;;;5033702;28;1365;-67
2022/02/14 04:26:10;;;;;;;;;;;18.60;54.90;;;;;;5033917;28;1956;-67
2022/02/14 04:28:36;;;;;;;;;;;18.60;54.90;;;;;;5033678;28;1158;-67
2022/02/14 04:31:01;;;;;;;;;;;18.60;54.90;;;;;;5034095;28;1309;-67
2022/02/14 04:33:27;;;;;;;;;;;18.60;55.00;;;;;;5033872;28;1208;-67
2022/02/14 04:35:52;;;;;;;;;;;18.60;55.00;;;;;;5033739;28;1096;-67
2022/02/14 04:38:18;;;;;;;;;;;18.60;55.00;;;;;;5033755;28;1134;-67
2022/02/14 04:40:43;;;;;;;;;;;18.60;55.00;;;;;;5015932;28;1286;-67
2022/02/14 04:43:09;;;;;;;;;;;18.60;55.00;;;;;;5032905;28;1264;-67
2022/02/14 04:45:34;;;;;;;;;;;18.60;55.00;;;;;;5033476;28;1902;-67
2022/02/14 04:48:00;;;;;;;;;;;18.60;55.60;;;;;;5033608;28;1132;-67
2022/02/14 04:50:25;;;;;;;;;;;18.60;55.00;;;;;;5015605;28;1061;-67
2022/02/14 04:52:50;;;;;;;;;;;18.60;55.00;;;;;;5015651;28;1277;-66
2022/02/14 04:55:16;;;;;;;;;;;18.60;55.00;;;;;;5033372;28;1139;-66
2022/02/14 04:57:41;;;;;;;;;;;18.60;55.00;;;;;;5033698;28;1062;-67
2022/02/14 05:00:08;;;;;;;;;;;18.60;55.00;;;;;;5015489;28;1316;-67
2022/02/14 05:02:33;;;;;;;;;;;18.50;55.00;;;;;;5015687;28;1274;-67
2022/02/14 05:04:59;;;;;;;;;;;18.50;55.00;;;;;;5015509;28;1950;-67
2022/02/14 05:07:24;;;;;;;;;;;18.50;55.10;;;;;;5033299;28;1064;-67
2022/02/14 05:09:50;;;;;;;;;;;18.50;55.00;;;;;;5032990;28;1115;-67
2022/02/14 05:12:15;;;;;;;;;;;18.50;55.10;;;;;;5033252;28;1260;-67
2022/02/14 05:14:41;;;;;;;;;;;18.50;55.10;;;;;;5015420;28;1279;-67
2022/02/14 05:17:06;;;;;;;;;;;18.50;55.10;;;;;;5015700;28;1328;-67
2022/02/14 05:19:32;;;;;;;;;;;18.50;55.10;;;;;;5015494;28;1310;-67
2022/02/14 05:21:57;;;;;;;;;;;18.50;55.10;;;;;;5032963;28;1321;-67
2022/02/14 05:24:22;;;;;;;;;;;18.50;55.10;;;;;;5014923;28;1911;-66
2022/02/14 05:26:48;;;;;;;;;;;18.50;55.10;;;;;;4998738;28;1088;-67
2022/02/14 05:29:13;;;;;;;;;;;18.50;55.10;;;;;;5032662;28;1132;-67
2022/02/14 05:31:39;;;;;;;;;;;18.50;55.10;;;;;;5032935;28;1160;-67
2022/02/14 05:34:04;;;;;;;;;;;18.50;55.70;;;;;;5015091;28;1359;-68
2022/02/14 05:36:29;;;;;;;;;;;18.50;55.20;;;;;;5015201;28;1313;-66
2022/02/14 05:38:55;;;;;;;;;;;18.50;55.20;;;;;;5032534;28;1044;-67
2022/02/14 05:41:21;;;;;;;;;;;18.50;55.20;;;;;;5032897;28;1064;-67
2022/02/14 05:43:47;;;;;;;;;;;18.50;55.20;;;;;;5033088;28;1262;-66
2022/02/14 05:46:15;;;;;;;;;;;18.50;55.20;;;;;;5015383;28;1894;-67
2022/02/14 05:48:41;;;;;;;;;;;18.50;55.30;;;;;;5032292;28;1119;-68
2022/02/14 05:51:07;;;;;;;;;;;18.50;55.20;;;;;;5015313;28;1220;-67
2022/02/14 05:53:32;;;;;;;;;;;18.50;55.20;;;;;;5015667;28;1379;-67
2022/02/14 05:55:58;;;;;;;;;;;18.50;55.20;;;;;;5018656;28;1343;-67
2022/02/14 05:58:23;;;;;;;;;;;18.50;55.20;;;;;;5001904;28;1108;-67
2022/02/14 06:00:49;;;;;;;;;;;18.50;55.20;;;;;;5036390;28;1415;-67
2022/02/14 06:03:14;;;;;;;;;;;18.50;55.20;;;;;;5036428;28;1341;-67
2022/02/14 06:05:40;;;;;;;;;;;18.50;55.20;;;;;;5018464;28;1890;-67
2022/02/14 06:08:05;;;;;;;;;;;18.60;55.20;;;;;;5036032;28;1407;-67
2022/02/14 06:10:31;;;;;;;;;;;18.60;55.10;;;;;;5018240;28;1242;-67
2022/02/14 06:12:56;;;;;;;;;;;18.60;55.00;;;;;;5035970;28;1200;-67
2022/02/14 06:15:22;;;;;;;;;;;18.60;55.00;;;;;;5036421;28;1060;-68
2022/02/14 06:17:47;;;;;;;;;;;18.60;54.90;;;;;;5036338;28;1155;-67
2022/02/14 06:20:15;;;;;;;;;;;18.70;54.90;;;;;;5035905;28;1048;-67
2022/02/14 06:22:40;;;;;;;;;;;18.70;54.80;;;;;;5036101;28;1271;-67
2022/02/14 06:25:06;;;;;;;;;;;18.80;54.70;;;;;;5018163;28;1966;-68
2022/02/14 06:27:31;;;;;;;;;;;18.80;54.60;;;;;;5036052;28;1290;-67
2022/02/14 06:29:57;;;;;;;;;;;18.80;54.60;;;;;;5017776;28;1099;-67
2022/02/14 06:32:22;;;;;;;;;;;18.80;54.50;;;;;;5035526;28;1425;-68
2022/02/14 06:34:47;;;;;;;;;;;18.80;54.50;;;;;;5035766;28;1079;-67
2022/02/14 06:37:13;;;;;;;;;;;18.80;54.40;;;;;;5035419;28;1256;-67
2022/02/14 06:39:38;;;;;;;;;;;18.90;54.40;;;;;;5017899;28;1110;-66
2022/02/14 06:42:04;;;;;;;;;;;18.90;54.30;;;;;;5017800;28;1281;-67
2022/02/14 06:44:29;;;;;;;;;;;18.90;54.30;;;;;;5017856;28;1977;-67
2022/02/14 06:46:56;;;;;;;;;;;18.90;54.30;;;;;;5035469;28;1413;-66
2022/02/14 06:49:21;;;;;;;;;;;18.90;54.20;;;;;;5034055;28;1065;-67
2022/02/14 06:51:47;;;;;;;;;;;18.90;54.20;;;;;;5035101;28;1112;-67
2022/02/14 06:54:12;;;;;;;;;;;18.90;54.20;;;;;;5035402;28;1170;-66
2022/02/14 06:56:37;;;;;;;;;;;18.90;54.20;;;;;;5035288;28;1251;-67
2022/02/14 06:59:03;;;;;;;;;;;18.90;54.10;;;;;;5035196;28;1041;-66
2022/02/14 07:01:28;;;;;;;;;;;18.90;54.10;;;;;;5017547;28;1447;-69
2022/02/14 07:03:54;;;;;;;;;;;19.00;54.10;;;;;;5017437;28;1231;-69
2022/02/14 07:06:19;;;;;;;;;;;19.00;52.80;;;;;;5034208;28;1891;-68
2022/02/14 07:08:45;;;;;;;;;;;19.00;51.20;;;;;;5034842;28;1159;-68
2022/02/14 07:11:10;;;;;;;;;;;18.90;50.70;;;;;;5035092;28;1124;-68
2022/02/14 07:13:36;;;;;;;;;;;19.00;50.80;;;;;;5035077;28;1286;-67
2022/02/14 07:16:01;;;;;;;;;;;19.00;50.70;;;;;;5034947;28;1143;-68
2022/02/14 07:18:28;;;;;;;;;;;19.00;50.90;;;;;;5034836;28;1273;-67
2022/02/14 07:20:54;;;;;;;;;;;19.00;51.00;;;;;;5010344;28;1792;-67
2022/02/14 07:23:20;;;;;;;;;;;19.00;51.10;;;;;;5029012;28;2135;-68
2022/02/14 07:25:46;;;;;;;;;;;19.10;51.30;;;;;;5029725;28;1911;-69
2022/02/14 07:28:11;;;;;;;;;;;19.10;51.30;;;;;;5016905;28;1182;-71
2022/02/14 07:30:37;;;;;;;;;;;19.10;51.30;;;;;;5016735;28;1432;-70
2022/02/14 07:33:02;;;;;;;;;;;19.10;51.40;;;;;;5034541;28;1285;-67
2022/02/14 07:35:27;;;;;;;;;;;19.10;51.50;;;;;;5016553;28;1296;-68
2022/02/14 07:37:53;;;;;;;;;;;19.10;51.60;;;;;;5034379;28;1246;-70
2022/02/14 07:40:18;;;;;;;;;;;19.10;51.70;;;;;;5034544;28;1375;-67
2022/02/14 07:42:44;;;;;;;;;;;19.10;51.80;;;;;;5034387;28;1279;-68
2022/02/14 07:45:09;;;;;;;;;;;19.10;51.80;;;;;;5016587;28;1902;-68
2022/02/14 07:47:35;;;;;;;;;;;19.10;51.90;;;;;;5033940;28;1361;-66
2022/02/14 07:50:00;;;;;;;;;;;19.10;52.00;;;;;;5022772;28;1236;-67
2022/02/14 07:52:26;;;;;;;;;;;19.10;52.00;;;;;;5027761;28;1295;-68
2022/02/14 07:54:51;;;;;;;;;;;19.20;52.20;;;;;;5027418;28;1276;-65
2022/02/14 07:57:17;;;;;;;;;;;19.20;52.20;;;;;;5010929;28;1308;-68
2022/02/14 07:59:43;;;;;;;;;;;19.10;52.20;;;;;;5027053;28;1209;-68
2022/02/14 08:02:08;;;;;;;;;;;19.20;52.90;;;;;;5028685;28;1244;-68
2022/02/14 08:04:34;;;;;;;;;;;19.20;52.90;;;;;;5025231;28;2029;-68
2022/02/14 08:07:02;;;;;;;;;;;19.30;53.20;;;;;;5010566;28;1355;-67
2022/02/14 08:09:27;;;;;;;;;;;19.30;53.60;;;;;;5028990;28;1061;-68
2022/02/14 08:11:52;;;;;;;;;;;19.40;53.40;;;;;;5027507;28;1236;-68
2022/02/14 08:14:18;;;;;;;;;;;19.50;53.40;;;;;;5028826;28;1293;-68
2022/02/14 08:16:44;;;;;;;;;;;19.60;53.40;;;;;;5025390;28;1229;-68
2022/02/14 08:19:09;;;;;;;;;;;19.70;53.20;;;;;;4999003;28;1093;-68
2022/02/14 08:21:35;;;;;;;;;;;19.80;53.00;;;;;;5016092;28;1338;-68
2022/02/14 08:24:00;;;;;;;;;;;19.90;52.90;;;;;;5033470;28;1365;-67
2022/02/14 08:26:26;;;;;;;;;;;20.10;52.70;;;;;;5034567;28;1914;-68
2022/02/14 08:28:51;;;;;;;;;;;20.20;52.60;;;;;;4999116;28;1267;-68
2022/02/14 08:31:17;;;;;;;;;;;20.30;52.40;;;;;;5015965;28;1245;-67
2022/02/14 08:33:42;;;;;;;;;;;20.40;52.30;;;;;;5015611;28;1286;-67
2022/02/14 08:36:07;;;;;;;;;;;20.40;52.10;;;;;;5033365;28;1234;-67
2022/02/14 08:38:35;;;;;;;;;;;20.50;52.00;;;;;;5033093;28;1292;-67
2022/02/14 08:41:00;;;;;;;;;;;20.60;51.90;;;;;;5033354;28;1068;-67
2022/02/14 08:43:26;;;;;;;;;;;20.60;51.80;;;;;;5033404;28;1272;-67
2022/02/14 08:45:51;;;;;;;;;;;20.70;51.80;;;;;;5033318;28;1961;-67
2022/02/14 08:48:18;;;;;;;;;;;20.70;51.80;;;;;;5015317;28;1166;-67
2022/02/14 08:50:43;;;;;;;;;;;20.80;51.90;;;;;;5033102;28;1253;-68
2022/02/14 08:53:09;;;;;;;;;;;20.80;51.80;;;;;;5033034;28;1361;-67
2022/02/14 08:55:34;;;;;;;;;;;20.80;51.80;;;;;;5033267;28;1135;-68
2022/02/14 08:58:00;;;;;;;;;;;20.80;51.80;;;;;;5032908;28;1136;-68
2022/02/14 09:00:25;;;;;;;;;;;20.80;51.90;;;;;;5015160;28;1082;-67
2022/02/14 09:02:51;;;;;;;;;;;20.80;52.00;;;;;;5015366;28;1288;-68
2022/02/14 09:05:16;;;;;;;;;;;20.80;52.60;;;;;;4998789;28;1949;-68
2022/02/14 09:07:42;;;;;;;;;;;20.80;52.10;;;;;;5015162;28;1135;-67
2022/02/14 09:10:07;;;;;;;;;;;20.80;52.10;;;;;;5032653;28;1283;-68
2022/02/14 09:12:33;;;;;;;;;;;20.80;52.20;;;;;;5027140;28;1882;-67
2022/02/14 09:14:59;;;;;;;;;;;20.80;52.20;;;;;;5015303;28;1450;-67
2022/02/14 09:17:25;;;;;;;;;;;20.80;52.40;;;;;;5015155;28;1483;-67
2022/02/14 09:19:51;;;;;;;;;;;20.80;52.40;;;;;;5007931;28;1388;-67
2022/02/14 09:22:16;;;;;;;;;;;20.80;52.50;;;;;;5032661;28;1498;-67
2022/02/14 09:24:41;;;;;;;;;;;20.80;52.60;;;;;;5019577;28;1902;-67
2022/02/14 09:27:07;;;;;;;;;;;20.80;53.40;;;;;;5015262;28;1648;-68
2022/02/14 09:29:32;;;;;;;;;;;20.70;53.20;;;;;;5032095;28;1625;-67
2022/02/14 09:31:58;;;;;;;;;;;20.80;53.40;;;;;;4998842;28;1702;-68
2022/02/14 09:34:24;;;;;;;;;;;20.70;53.50;;;;;;5032886;28;1209;-68
2022/02/14 09:36:53;;;;;;;;;;;20.70;53.30;;;;;;5016106;28;1511;-67
2022/02/14 09:39:19;;;;;;;;;;;20.70;53.50;;;;;;5015459;28;1362;-69
2022/02/14 09:41:44;;;;;;;;;;;20.70;53.90;;;;;;5033271;28;1648;-68
2022/02/14 09:44:10;;;;;;;;;;;20.70;53.90;;;;;;5030833;28;1995;-68
2022/02/14 09:46:36;;;;;;;;;;;20.70;53.90;;;;;;5029145;28;1955;-68
2022/02/14 09:49:02;;;;;;;;;;;20.70;53.90;;;;;;5029297;28;1154;-68
2022/02/14 09:51:28;;;;;;;;;;;20.70;53.90;;;;;;5029947;28;1157;-68
2022/02/14 09:53:54;;;;;;;;;;;20.60;53.90;;;;;;5015750;28;1296;-68
2022/02/14 09:56:22;;;;;;;;;;;20.60;54.10;;;;;;5033180;28;1389;-67
2022/02/14 09:58:48;;;;;;;;;;;20.60;54.00;;;;;;5015384;28;1709;-68
2022/02/14 10:01:13;;;;;;;;;;;20.60;54.10;;;;;;5032237;28;1131;-69
2022/02/14 10:03:47;;;;;;;;;;;20.60;54.20;;;;;;5014333;28;1389;-67
2022/02/14 10:06:19;;;;;;;;;;;20.60;54.30;;;;;;5031720;28;1886;-68
2022/02/14 10:08:45;;;;;;;;;;;20.60;54.40;;;;;;5014272;28;1371;-67
2022/02/14 10:11:13;;;;;;;;;;;20.60;54.40;;;;;;5032318;28;1402;-68
2022/02/14 10:13:39;;;;;;;;;;;20.60;54.40;;;;;;5032083;28;1483;-68
2022/02/14 10:16:08;;;;;;;;;;;20.60;54.50;;;;;;5014301;28;1300;-68
2022/02/14 10:18:34;;;;;;;;;;;20.60;54.40;;;;;;5032051;28;1386;-67
2022/02/14 10:21:38;;;;;;;;;;;20.50;54.40;;;;;;5014417;28;1297;-67
2022/02/14 10:24:04;;;;;;;;;;;20.60;54.70;;;;;;4990194;28;1732;-68
2022/02/14 10:26:56;;;;;;;;;;;20.60;54.70;;;;;;4974039;28;1915;-67
2022/02/14 10:29:23;;;;;;;;;;;20.60;54.80;;;;;;5013964;28;1393;-68
2022/02/14 10:31:49;;;;;;;;;;;20.60;54.80;;;;;;5014364;28;1291;-69
2022/02/14 10:34:14;;;;;;;;;;;20.60;54.90;;;;;;5031849;28;1448;-68
2022/02/14 10:36:40;;;;;;;;;;;20.50;54.80;;;;;;5025452;28;1595;-67
2022/02/14 10:39:07;;;;;;;;;;;20.50;54.80;;;;;;5031524;28;1411;-66
2022/02/14 10:41:32;;;;;;;;;;;20.50;54.80;;;;;;5017071;28;1076;-68
2022/02/14 10:44:05;;;;;;;;;;;20.50;54.90;;;;;;5018173;28;1358;-68
2022/02/14 10:46:32;;;;;;;;;;;20.50;54.90;;;;;;5035813;28;1906;-69
2022/02/14 10:48:58;;;;;;;;;;;20.50;55.00;;;;;;5035873;28;1010;-68
2022/02/14 10:51:23;;;;;;;;;;;20.50;55.00;;;;;;5018069;28;1456;-67
2022/02/14 10:53:49;;;;;;;;;;;20.50;55.00;;;;;;5014758;28;1769;-64
2022/02/14 10:56:14;;;;;;;;;;;20.50;55.10;;;;;;5034997;28;1431;-65
2022/02/14 10:58:41;;;;;;;;;;;20.50;55.10;;;;;;5034882;28;1419;-67
2022/02/14 11:01:10;;;;;;;;;;;20.40;55.10;;;;;;5017762;28;1311;-66
2022/02/14 11:03:37;;;;;;;;;;;20.40;55.20;;;;;;5035180;28;1316;-66
2022/02/14 11:06:03;;;;;;;;;;;20.40;55.20;;;;;;5034809;28;1898;-65
2022/02/14 11:08:28;;;;;;;;;;;20.40;55.30;;;;;;5006802;28;1006;-67
2022/02/14 11:10:54;;;;;;;;;;;20.40;55.30;;;;;;5017284;28;1072;-68
2022/02/14 11:13:23;;;;;;;;;;;20.40;55.40;;;;;;5017433;28;1370;-67
2022/02/14 11:15:49;;;;;;;;;;;20.40;55.40;;;;;;5017224;28;1299;-68
2022/02/14 11:18:18;;;;;;;;;;;20.40;55.40;;;;;;5017306;28;1144;-68
2022/02/14 11:20:44;;;;;;;;;;;20.30;55.40;;;;;;5009427;28;1928;-68
2022/02/14 11:23:10;;;;;;;;;;;20.30;55.50;;;;;;5014964;28;1370;-69
2022/02/14 11:25:43;;;;;;;;;;;20.30;55.60;;;;;;5034667;28;1979;-68
2022/02/14 11:28:29;;;;;;;;;;;20.30;55.60;;;;;;5033470;28;1214;-69
2022/02/14 11:31:14;;;;;;;;;;;20.30;55.70;;;;;;5026559;28;1254;-69
2022/02/14 11:33:52;;;;;;;;;;;20.30;55.70;;;;;;5024639;28;1378;-68
2022/02/14 11:36:17;;;;;;;;;;;20.30;55.80;;;;;;5034097;28;1166;-68
2022/02/14 11:38:53;;;;;;;;;;;20.30;55.80;;;;;;5016366;28;1319;-68
2022/02/14 11:41:32;;;;;;;;;;;20.30;55.80;;;;;;5034357;28;1272;-69
2022/02/14 11:44:17;;;;;;;;;;;20.20;55.80;;;;;;5016842;28;1436;-68
2022/02/14 11:46:43;;;;;;;;;;;20.20;55.80;;;;;;5034472;28;1902;-68
2022/02/14 11:49:09;;;;;;;;;;;20.30;55.90;;;;;;5016229;28;1080;-68
2022/02/14 11:51:37;;;;;;;;;;;20.20;55.90;;;;;;5034123;28;1367;-69
2022/02/14 11:54:06;;;;;;;;;;;20.20;55.90;;;;;;5033976;28;1192;-68
2022/02/14 11:56:32;;;;;;;;;;;20.20;55.90;;;;;;5034278;28;1403;-69
2022/02/14 11:58:58;;;;;;;;;;;20.20;55.90;;;;;;5033877;28;1275;-68
2022/02/14 12:01:24;;;;;;;;;;;20.20;56.00;;;;;;5016294;28;1081;-68
2022/02/14 12:03:50;;;;;;;;;;;20.20;56.00;;;;;;5016435;28;1404;-68
2022/02/14 12:06:15;;;;;;;;;;;20.20;56.10;;;;;;4998818;28;1894;-67
2022/02/14 12:08:56;;;;;;;;;;;20.20;56.10;;;;;;5024932;28;1276;-67
2022/02/14 12:11:41;;;;;;;;;;;20.20;56.10;;;;;;5015983;28;1219;-68
2022/02/14 12:14:14;;;;;;;;;;;20.20;56.10;;;;;;5033787;28;1278;-68
2022/02/14 12:22:23;;;;;;;;;;;20.20;56.20;;;;;;5018975;28;1433;-68
2022/02/14 12:24:51;;;;;;;;;;;20.20;56.20;;;;;;5038917;22;2167;-70
2022/02/14 12:27:16;;;;;;;;;;;20.20;56.30;;;;;;5029614;28;1316;-71
2022/02/14 12:29:42;;;;;;;;;;;20.20;56.30;;;;;;5032040;28;1645;-71
2022/02/14 12:32:08;;;;;;;;;;;20.20;56.30;;;;;;5032432;28;1212;-71
2022/02/14 12:34:37;;;;;;;;;;;20.20;56.30;;;;;;5033621;28;1460;-71
2022/02/14 12:37:03;;;;;;;;;;;20.20;56.30;;;;;;5029559;28;1487;-71
2022/02/14 12:39:32;;;;;;;;;;;20.20;56.30;;;;;;5011346;28;1375;-70
2022/02/14 12:41:57;;;;;;;;;;;20.20;56.30;;;;;;5029444;28;1506;-71
2022/02/14 12:44:28;;;;;;;;;;;20.20;56.30;;;;;;5032168;28;1698;-70
2022/02/14 12:46:53;;;;;;;;;;;20.20;56.30;;;;;;5032456;28;1951;-71
2022/02/14 12:49:19;;;;;;;;;;;20.20;56.40;;;;;;5031954;28;1669;-71
2022/02/14 12:51:44;;;;;;;;;;;20.20;56.40;;;;;;5033015;28;1390;-71
2022/02/14 12:54:10;;;;;;;;;;;20.20;56.40;;;;;;5015271;28;1480;-72
2022/02/14 12:56:36;;;;;;;;;;;20.20;56.50;;;;;;5032052;28;1382;-72
2022/02/14 12:59:08;;;;;;;;;;;20.20;56.60;;;;;;5031527;28;1422;-71
2022/02/14 13:01:39;;;;;;;;;;;20.30;56.60;;;;;;5033225;28;1412;-70
2022/02/14 13:04:08;;;;;;;;;;;20.30;56.60;;;;;;5032281;28;1712;-72
2022/02/14 13:06:50;;;;;;;;;;;20.20;56.00;;;;;;5015288;28;1973;-70
2022/02/14 13:09:29;;;;;;;;;;;20.30;54.60;;;;;;5031787;28;1679;-71
2022/02/14 13:11:57;;;;;;;;;;;20.20;53.20;;;;;;5030747;28;1164;-71
2022/02/14 13:14:27;;;;;;;;;;;20.20;52.20;;;;;;5027083;28;1458;-71
2022/02/14 13:16:52;;;;;;;;;;;20.10;51.50;;;;;;5005522;28;1285;-70
2022/02/14 13:19:17;;;;;;;;;;;20.10;50.60;;;;;;5031155;28;1296;-70
2022/02/14 13:21:43;;;;;;;;;;;20.10;50.00;;;;;;5031646;28;934;-71
2022/02/14 13:24:19;;;;;;;;;;;20.00;49.30;;;;;;5031010;28;1309;-71
2022/02/14 13:26:44;;;;;;;;;;;20.00;48.60;;;;;;5032618;28;1906;-72
2022/02/14 13:29:10;;;;;;;;;;;20.00;48.10;;;;;;5024309;28;1231;-71
2022/02/14 13:31:35;;;;;;;;;;;19.90;47.80;;;;;;5010889;28;1152;-72
2022/02/14 13:34:03;;;;;;;;;;;19.90;47.20;;;;;;5029441;28;1249;-72
2022/02/14 13:36:28;;;;;;;;;;;19.90;46.80;;;;;;5031459;28;1376;-71
2022/02/14 13:38:54;;;;;;;;;;;19.80;46.40;;;;;;5030001;28;1489;-71
2022/02/14 13:41:24;;;;;;;;;;;19.80;46.30;;;;;;5024133;28;1503;-71
2022/02/14 13:43:50;;;;;;;;;;;19.80;46.20;;;;;;5010808;28;1215;-73
2022/02/14 13:46:16;;;;;;;;;;;19.70;46.60;;;;;;5030911;28;1906;-72
2022/02/14 13:48:42;;;;;;;;;;;19.70;45.80;;;;;;5030662;28;1428;-70
2022/02/14 13:51:24;;;;;;;;;;;19.70;45.70;;;;;;5031802;28;1079;-73
2022/02/14 13:53:59;;;;;;;;;;;19.70;45.50;;;;;;5031243;28;1415;-73
2022/02/14 13:56:25;;;;;;;;;;;19.70;45.30;;;;;;5031355;28;1333;-73
2022/02/14 13:58:51;;;;;;;;;;;19.60;45.10;;;;;;5032104;28;1317;-73
2022/02/14 14:01:20;;;;;;;;;;;19.60;45.00;;;;;;5032955;28;1048;-73
2022/02/14 14:03:46;;;;;;;;;;;19.60;44.80;;;;;;5032673;28;1268;-73
2022/02/14 14:06:21;;;;;;;;;;;19.60;44.80;;;;;;5031338;28;2326;-73
2022/02/14 14:08:46;;;;;;;;;;;19.60;44.90;;;;;;5030833;28;1373;-73
2022/02/14 14:11:25;;;;;;;;;;;19.50;44.70;;;;;;5032295;28;1095;-73
2022/02/14 14:13:53;;;;;;;;;;;19.50;44.70;;;;;;5031106;28;1329;-73
2022/02/14 14:16:19;;;;;;;;;;;19.50;44.30;;;;;;5036522;28;1056;-73
2022/02/14 14:18:44;;;;;;;;;;;19.50;43.80;;;;;;5036120;28;1388;-73
2022/02/14 14:21:12;;;;;;;;;;;19.50;44.20;;;;;;5036359;28;1370;-73
2022/02/14 14:23:37;;;;;;;;;;;19.40;44.20;;;;;;5034880;28;1367;-73
2022/02/14 14:26:06;;;;;;;;;;;19.40;44.10;;;;;;5034534;28;1894;-73
2022/02/14 14:28:32;;;;;;;;;;;19.40;43.90;;;;;;5030580;28;1076;-72
2022/02/14 14:30:57;;;;;;;;;;;19.30;43.80;;;;;;5029685;28;1229;-73
2022/02/14 14:33:23;;;;;;;;;;;19.30;43.80;;;;;;5030418;28;1358;-73